Disclaimer

Please do not use the information listed here in-flight or in-navigation, as they are not provided to us by the airports but are provided by volunteers, so they might be outdated.

Search


Regions


Airport information page

No radio frequency information is available.

Airport informations:
Latitude: 50° 24' 06.10" N
Longitude: 030° 26' 58.91" E
Elevation: 586 feet - 179 meters
Operating hours: Remarks
Operating agency: Civil government, landing fees and diplomatic clearance may be required
Timezone: UTC+2(+3DT) - Last Sunday in March to last Sunday in October
Fuel: N/A

Runway information:
08/26 - 5905 x 161 feet< - >1800 x 49 meters

Recent METARs:
UKKK 211900Z 04004MPS 9999 BKN016 M01/M04 Q1026 R08/190060 NOSIG
UKKK 211930Z 01003MPS 350V080 9999 BKN016 M01/M04 Q1026 R08/190060 NOSIG
UKKK 212000Z 03003MPS 360V070 9999 BKN016 M01/M04 Q1026 R08/190060 NOSIG

Airport on the map: